Terminal Aerodrome Forecast
Issued by NWS

Home | Current Version | Previous Version | Text Only | Print | Product List | Glossary Off
Versions: 1 2 3 4 5 6 7 8 9 10 11 12 13 14 15 16 17 18 19

000
FTUS43 KMPX 250500
TAFAXN
TAF
KAXN 250531Z 2506/2606 23003KT P6SM SKC
     FM251800 26013G20KT P6SM SCT030
     FM260100 30008KT P6SM SCT030 BKN120=

USA.gov is the U.S. government's official web portal to all federal, state and local government web resources and services.